Terminal Aerodrome Forecast
Issued by NWS

Home | Current Version | Previous Version | Text Only | Print | Product List | Glossary On
Versions: 1 2 3 4 5 6 7 8 9 10 11 12 13 14 15 16 17 18 19 20 21 22 23 24 25 26 27 28
000
FTUS41 KOKX 280527
TAFSWF
TAF
KSWF 280527Z 2806/2912 VRB04KT P6SM BKN070
     FM280700 VRB03KT 5SM BR BKN020
     FM281500 25011KT P6SM SCT030 BKN200
     FM281800 29011KT P6SM BKN040
     FM282100 31012KT P6SM FEW120
     FM290200 VRB03KT P6SM SKC
      AMD NOT SKED=

USA.gov is the U.S. government's official web portal to all federal, state and local government web resources and services.